Time;durP1;ratioP1;P1;durP2;ratioP2;P2;SDS_P1;SDS_P2;PMS_P1;PMS_P2;Temp;Humidity;BMP_temperature;BMP_pressure;BME280_temperature;BME280_humidity;BME280_pressure;Samples;Min_cycle;Max_cycle;Signal;HPM_P1;HPM_P2
2022/08/28 00:00:34;;;;;;;11.07;4.93;;;;;;;22.03;45.43;99513.91;4200510;28;20372;-68
2022/08/28 00:03:01;;;;;;;13.73;5.07;;;;;;;21.98;45.78;99511.09;4188897;28;20331;-68
2022/08/28 00:05:30;;;;;;;20.07;5.40;;;;;;;21.96;46.16;99520.53;4200521;28;20225;-68
2022/08/28 00:07:58;;;;;;;16.57;4.73;;;;;;;21.91;45.99;99513.13;4193947;28;20655;-68
2022/08/28 00:10:26;;;;;;;14.27;5.33;;;;;;;21.98;46.01;99510.28;4204032;28;20329;-68
2022/08/28 00:12:54;;;;;;;15.80;4.60;;;;;;;21.99;46.12;99514.66;4202757;28;26271;-69
2022/08/28 00:15:26;;;;;;;21.80;5.77;;;;;;;21.83;46.64;99511.63;4202119;28;20240;-65
2022/08/28 00:17:52;;;;;;;12.90;5.03;;;;;;;21.78;47.24;99514.25;4208446;28;20237;-69
2022/08/28 00:20:19;;;;;;;19.67;4.70;;;;;;;21.70;46.94;99510.03;4183587;28;20243;-69
2022/08/28 00:22:47;;;;;;;16.37;5.10;;;;;;;21.67;47.03;99512.41;4198594;28;20285;-66
2022/08/28 00:25:15;;;;;;;21.10;5.17;;;;;;;21.83;46.23;99508.91;4202278;28;20235;-69
2022/08/28 00:27:54;;;;;;;15.27;4.43;;;;;;;21.90;45.99;99512.31;4197287;28;23102;-67
2022/08/28 00:30:26;;;;;;;16.87;5.37;;;;;;;21.88;45.92;99514.44;4202547;28;26297;-68
2022/08/28 00:32:55;;;;;;;15.97;5.03;;;;;;;21.97;45.64;99505.94;4195115;28;20438;-71
2022/08/28 00:35:22;;;;;;;10.57;4.80;;;;;;;22.06;45.45;99510.72;4203503;28;20325;-66
2022/08/28 00:37:50;;;;;;;16.07;4.93;;;;;;;21.95;45.97;99508.06;4204299;28;20476;-69
2022/08/28 00:40:19;;;;;;;15.47;5.23;;;;;;;21.92;45.71;99499.34;4205223;28;20388;-68
2022/08/28 00:43:00;;;;;;;34.50;6.13;;;;;;;21.88;46.49;99498.19;4197676;28;20247;-68
2022/08/28 00:45:27;;;;;;;14.93;5.30;;;;;;;21.84;46.74;99494.31;4204596;28;22897;-67
2022/08/28 00:47:54;;;;;;;14.60;4.83;;;;;;;21.80;47.50;99501.28;4212284;28;21545;-68
2022/08/28 00:50:23;;;;;;;16.53;5.10;;;;;;;21.78;47.08;99497.19;4202040;28;20377;-69
2022/08/28 00:52:54;;;;;;;16.53;5.63;;;;;;;21.74;47.23;99490.59;4192858;28;21952;-70
2022/08/28 00:55:22;;;;;;;14.10;4.83;;;;;;;21.77;47.25;99488.22;4182681;28;20267;-68
2022/08/28 00:57:52;;;;;;;14.73;4.87;;;;;;;21.63;47.93;99489.56;4181862;28;20309;-66
2022/08/28 01:00:32;;;;;;;19.77;4.60;;;;;;;21.68;48.22;99492.38;4211411;28;20266;-67
2022/08/28 01:02:59;;;;;;;16.17;4.67;;;;;;;21.61;48.17;99495.25;4203840;28;20257;-68
2022/08/28 01:05:27;;;;;;;16.40;5.10;;;;;;;21.55;48.00;99487.25;4190074;28;20260;-69
2022/08/28 01:07:57;;;;;;;16.07;5.30;;;;;;;21.55;48.69;99490.78;4195263;28;20236;-69
2022/08/28 01:10:27;;;;;;;18.50;5.37;;;;;;;21.47;48.80;99491.97;4202024;28;20321;-67
2022/08/28 01:12:55;;;;;;;17.93;5.57;;;;;;;21.38;49.10;99484.44;4182299;28;20259;-69
2022/08/28 01:15:27;;;;;;;16.07;5.60;;;;;;;21.38;48.99;99485.25;4179087;28;20382;-69
2022/08/28 01:17:56;;;;;;;18.97;5.57;;;;;;;21.39;49.02;99489.59;4201746;28;20241;-69
2022/08/28 01:20:26;;;;;;;22.87;5.20;;;;;;;21.34;49.76;99480.56;4199226;28;20241;-67
2022/08/28 01:22:59;;;;;;;18.87;5.07;;;;;;;21.33;49.97;99484.31;4202698;28;20251;-68
2022/08/28 01:25:30;;;;;;;18.30;5.37;;;;;;;21.31;49.77;99487.28;4189948;28;20317;-68
2022/08/28 01:27:57;;;;;;;14.57;5.30;;;;;;;21.22;49.75;99486.00;4193685;28;20236;-70
2022/08/28 01:30:24;;;;;;;16.97;5.53;;;;;;;21.22;50.64;99489.53;4199954;28;20254;-68
2022/08/28 01:32:53;;;;;;;23.97;9.47;;;;;;;21.18;50.43;99490.25;4188630;28;20230;-67
2022/08/28 01:35:26;;;;;;;16.77;5.73;;;;;;;21.10;50.40;99487.91;4199880;28;20303;-67
2022/08/28 01:37:54;;;;;;;17.70;5.97;;;;;;;21.06;50.78;99491.06;4183827;28;20240;-69
2022/08/28 01:40:30;;;;;;;14.53;5.77;;;;;;;21.04;50.78;99487.78;4204992;28;20329;-68
2022/08/28 01:43:09;;;;;;;20.03;6.20;;;;;;;20.96;51.41;99485.44;4198270;28;23502;-67
2022/08/28 01:45:36;;;;;;;17.57;6.20;;;;;;;21.01;51.57;99482.03;4186379;28;20337;-66
2022/08/28 01:48:05;;;;;;;20.53;5.80;;;;;;;20.98;51.76;99483.34;4213638;28;21302;-70
2022/08/28 01:50:32;;;;;;;13.80;5.80;;;;;;;20.91;51.72;99487.19;4181592;28;20236;-68
2022/08/28 01:53:00;;;;;;;17.37;6.17;;;;;;;20.86;52.27;99482.50;4209894;28;20396;-69
2022/08/28 01:55:27;;;;;;;17.23;6.03;;;;;;;20.80;52.68;99492.38;4211091;28;20236;-68
2022/08/28 01:57:55;;;;;;;18.50;5.73;;;;;;;20.74;53.49;99487.09;4208388;28;20240;-69
2022/08/28 02:00:26;;;;;;;20.80;5.80;;;;;;;20.66;53.49;99486.38;4208257;28;20426;-67
2022/08/28 02:02:55;;;;;;;20.37;6.17;;;;;;;20.56;54.04;99486.16;4203912;28;20256;-68
2022/08/28 02:05:24;;;;;;;18.30;5.57;;;;;;;20.47;54.74;99481.28;4215666;28;20738;-67
2022/08/28 02:07:51;;;;;;;14.73;5.20;;;;;;;20.39;55.21;99483.28;4215021;28;21556;-67
2022/08/28 02:10:21;;;;;;;20.63;6.70;;;;;;;20.37;55.25;99479.13;4205738;28;21062;-66
2022/08/28 02:12:48;;;;;;;22.27;6.47;;;;;;;20.32;56.01;99484.44;4217296;28;20593;-69
2022/08/28 02:15:16;;;;;;;22.00;6.20;;;;;;;20.15;56.15;99479.69;4220425;28;20623;-68
2022/08/28 02:17:44;;;;;;;17.43;6.03;;;;;;;20.10;56.97;99484.16;4209829;28;20239;-69
2022/08/28 02:20:10;;;;;;;21.33;6.00;;;;;;;20.06;57.10;99486.47;4215321;28;22642;-69
2022/08/28 02:22:37;;;;;;;20.93;6.23;;;;;;;20.05;57.62;99490.25;4214870;28;20287;-68
2022/08/28 02:25:05;;;;;;;20.57;6.27;;;;;;;19.95;58.20;99487.28;4215023;28;20617;-67
2022/08/28 02:27:32;;;;;;;16.40;6.70;;;;;;;19.87;58.10;99484.91;4191421;28;20397;-68
2022/08/28 02:29:58;;;;;;;24.53;6.67;;;;;;;19.86;58.60;99481.38;4212310;28;20243;-68
2022/08/28 02:32:25;;;;;;;19.23;5.80;;;;;;;19.85;58.62;99484.28;4213368;28;20242;-67
2022/08/28 02:34:52;;;;;;;18.90;6.40;;;;;;;19.73;58.98;99474.28;4211502;28;24482;-68
2022/08/28 02:37:19;;;;;;;17.10;6.47;;;;;;;19.74;58.80;99477.81;4213953;28;20240;-67
2022/08/28 02:39:46;;;;;;;20.77;6.83;;;;;;;19.72;59.62;99477.22;4194418;28;20247;-68
2022/08/28 02:42:13;;;;;;;16.73;6.60;;;;;;;19.62;59.69;99477.72;4191436;28;20224;-68
2022/08/28 02:44:41;;;;;;;17.80;6.93;;;;;;;19.65;59.53;99473.75;4214225;28;21687;-67
2022/08/28 02:47:08;;;;;;;17.23;7.20;;;;;;;19.61;60.02;99467.97;4215845;28;20235;-69
2022/08/28 02:49:34;;;;;;;14.10;6.67;;;;;;;19.56;60.22;99481.34;4196878;28;20228;-66
2022/08/28 02:52:02;;;;;;;22.17;7.00;;;;;;;19.49;61.66;99484.09;4209432;28;21099;-66
2022/08/28 02:54:29;;;;;;;17.87;6.67;;;;;;;19.43;61.45;99486.88;4213148;28;20659;-67
2022/08/28 02:56:57;;;;;;;16.67;7.10;;;;;;;19.47;60.58;99485.38;4223126;28;20227;-66
2022/08/28 02:59:24;;;;;;;16.57;7.37;;;;;;;19.50;60.63;99484.94;4217965;28;20247;-68
2022/08/28 03:01:51;;;;;;;17.70;6.73;;;;;;;19.43;60.75;99481.50;4204816;28;20331;-69
2022/08/28 03:04:18;;;;;;;16.83;6.60;;;;;;;19.41;60.71;99487.13;4224518;28;20246;-67
2022/08/28 03:06:44;;;;;;;19.00;6.73;;;;;;;19.35;61.44;99491.53;4205113;28;20238;-67
2022/08/28 03:09:11;;;;;;;14.63;6.70;;;;;;;19.34;61.16;99487.19;4189485;28;20556;-69
2022/08/28 03:11:39;;;;;;;17.03;7.07;;;;;;;19.31;61.54;99484.94;4218899;28;20224;-67
2022/08/28 03:14:06;;;;;;;16.90;6.73;;;;;;;19.35;61.37;99483.44;4210224;28;23557;-68
2022/08/28 03:16:33;;;;;;;17.23;6.50;;;;;;;19.25;61.46;99477.75;4225845;28;20252;-67
2022/08/28 03:19:00;;;;;;;18.80;6.60;;;;;;;19.27;61.46;99478.38;4213904;28;20359;-68
2022/08/28 03:21:26;;;;;;;20.00;7.13;;;;;;;19.16;61.79;99481.81;4219085;28;20228;-68
2022/08/28 03:23:53;;;;;;;20.07;7.30;;;;;;;19.14;61.91;99473.13;4194345;28;21372;-67
2022/08/28 03:26:22;;;;;;;19.33;7.40;;;;;;;19.10;61.94;99478.13;4209325;28;20248;-70
2022/08/28 03:28:52;;;;;;;17.07;7.07;;;;;;;19.06;62.23;99473.41;4214176;28;20236;-69
2022/08/28 03:31:22;;;;;;;19.53;7.17;;;;;;;19.03;62.62;99471.16;4223155;28;20512;-67
2022/08/28 03:33:49;;;;;;;16.97;6.67;;;;;;;19.04;62.31;99478.22;4217628;28;20250;-67
2022/08/28 03:36:20;;;;;;;22.03;7.47;;;;;;;19.02;62.67;99469.53;4227916;28;20416;-67
2022/08/28 03:38:47;;;;;;;17.23;7.03;;;;;;;18.98;62.96;99475.34;4187470;28;20813;-68
2022/08/28 03:41:16;;;;;;;19.93;6.73;;;;;;;18.92;63.82;99481.66;4217453;28;20290;-70
2022/08/28 03:43:44;;;;;;;17.90;7.13;;;;;;;18.93;63.82;99487.84;4226289;28;21763;-68
2022/08/28 03:46:21;;;;;;;18.03;7.17;;;;;;;19.00;63.50;99485.09;4225318;28;20240;-68
2022/08/28 03:48:49;;;;;;;19.23;7.27;;;;;;;18.97;62.55;99487.19;4224329;28;20648;-67
2022/08/28 03:51:19;;;;;;;20.00;7.10;;;;;;;18.93;62.90;99494.06;4208854;28;20236;-70
2022/08/28 03:53:57;;;;;;;22.70;7.20;;;;;;;18.86;62.97;99493.31;4226835;28;20483;-68
2022/08/28 03:56:25;;;;;;;15.63;6.47;;;;;;;18.87;63.24;99488.72;4213373;28;21122;-68
2022/08/28 03:58:56;;;;;;;19.83;7.70;;;;;;;18.82;63.38;99496.66;4223937;28;20415;-69
2022/08/28 04:01:25;;;;;;;17.83;6.83;;;;;;;18.83;63.73;99491.06;4204885;28;20342;-68
2022/08/28 04:03:52;;;;;;;19.13;6.97;;;;;;;18.90;63.98;99496.41;4250075;28;20243;-67
2022/08/28 04:06:18;;;;;;;20.93;6.80;;;;;;;18.85;63.47;99499.75;4225862;28;20236;-68
2022/08/28 04:08:46;;;;;;;23.93;7.50;;;;;;;18.82;63.44;99500.19;4228251;28;20238;-68
2022/08/28 04:11:13;;;;;;;19.63;7.07;;;;;;;18.75;63.52;99502.09;4238460;28;20288;-67
2022/08/28 04:13:40;;;;;;;20.27;5.97;;;;;;;18.86;63.31;99505.97;4232193;28;21248;-69
2022/08/28 04:16:11;;;;;;;21.03;7.23;;;;;;;18.91;63.51;99504.25;4256161;28;20228;-68
2022/08/28 04:18:40;;;;;;;27.50;7.13;;;;;;;18.93;63.46;99504.84;4221207;28;20236;-67
2022/08/28 04:21:20;;;;;;;19.90;6.93;;;;;;;18.89;63.28;99503.63;4255700;28;21370;-67
2022/08/28 04:23:46;;;;;;;20.57;6.97;;;;;;;18.86;63.73;99506.78;4225948;28;20247;-68
2022/08/28 04:26:16;;;;;;;18.03;7.03;;;;;;;18.96;63.97;99509.81;4197397;28;20263;-67
2022/08/28 04:28:44;;;;;;;14.67;6.67;;;;;;;19.04;63.13;99506.00;4183773;28;22100;-69
2022/08/28 04:31:10;;;;;;;17.63;6.47;;;;;;;19.02;63.15;99501.88;4229913;28;21113;-70
2022/08/28 04:33:38;;;;;;;14.73;6.70;;;;;;;19.08;62.87;99500.97;4196754;28;20714;-67
2022/08/28 04:36:07;;;;;;;16.20;6.57;;;;;;;19.15;62.99;99504.41;4217493;28;20325;-68
2022/08/28 04:38:35;;;;;;;16.63;6.90;;;;;;;19.20;62.71;99504.59;4203781;28;22970;-68
2022/08/28 04:41:11;;;;;;;16.00;6.47;;;;;;;19.15;63.97;99507.13;4180027;28;20252;-67
2022/08/28 04:43:38;;;;;;;15.00;6.63;;;;;;;19.20;63.50;99510.00;4217056;28;20232;-69
2022/08/28 04:46:06;;;;;;;18.00;7.63;;;;;;;19.26;63.70;99509.06;4232227;28;21898;-69
2022/08/28 04:48:34;;;;;;;17.80;6.53;;;;;;;19.31;62.47;99511.91;4208292;28;20232;-68
2022/08/28 04:51:00;;;;;;;15.80;6.40;;;;;;;19.43;62.32;99509.28;4217846;28;20609;-68
2022/08/28 04:53:28;;;;;;;18.57;7.13;;;;;;;19.45;61.70;99507.19;4217829;28;20236;-67
2022/08/28 04:55:57;;;;;;;13.70;6.20;;;;;;;19.43;63.00;99514.69;4211238;28;20235;-67
2022/08/28 04:58:26;;;;;;;17.93;7.00;;;;;;;19.51;62.86;99518.97;4206130;28;20232;-67
2022/08/28 05:00:53;;;;;;;19.50;7.13;;;;;;;19.63;61.33;99514.47;4215435;28;20270;-68
2022/08/28 05:03:20;;;;;;;26.77;7.50;;;;;;;19.65;61.72;99512.34;4227919;28;20542;-69
2022/08/28 05:05:50;;;;;;;18.90;7.20;;;;;;;19.71;60.85;99522.25;4214546;28;20232;-67
2022/08/28 05:08:19;;;;;;;19.87;7.77;;;;;;;19.68;61.75;99509.22;4215120;28;21515;-66
2022/08/28 05:10:46;;;;;;;21.17;7.30;;;;;;;19.72;61.73;99507.72;4209639;28;20232;-69
2022/08/28 05:13:18;;;;;;;18.80;7.10;;;;;;;19.75;61.82;99511.84;4173705;28;20226;-67
2022/08/28 05:15:46;;;;;;;18.83;6.57;;;;;;;19.92;61.66;99502.03;4186329;28;20235;-68
2022/08/28 05:18:14;;;;;;;17.93;6.77;;;;;;;20.01;61.57;99507.97;4204865;28;20240;-67
2022/08/28 05:20:43;;;;;;;21.97;7.73;;;;;;;20.07;61.13;99508.94;4210190;28;20935;-69
2022/08/28 05:23:11;;;;;;;13.37;6.40;;;;;;;20.24;60.23;99515.31;4181307;28;20301;-68
2022/08/28 05:25:40;;;;;;;16.80;6.73;;;;;;;20.49;58.62;99512.44;4215866;28;20250;-70
2022/08/28 05:28:08;;;;;;;22.60;7.07;;;;;;;20.56;57.94;99515.06;4193290;28;21977;-70
2022/08/28 05:30:39;;;;;;;15.87;7.00;;;;;;;20.66;57.25;99518.00;4205359;28;20788;-69
2022/08/28 05:33:07;;;;;;;19.00;6.87;;;;;;;20.70;57.32;99513.78;4220306;28;20243;-68
2022/08/28 05:35:36;;;;;;;17.70;6.60;;;;;;;20.73;57.08;99520.59;4183352;28;21401;-69
2022/08/28 05:38:03;;;;;;;16.93;7.00;;;;;;;20.83;57.06;99524.34;4213028;28;20975;-68
2022/08/28 05:40:30;;;;;;;24.10;7.33;;;;;;;20.93;57.03;99523.78;4207881;28;20499;-68
2022/08/28 05:42:57;;;;;;;16.47;6.63;;;;;;;20.96;57.02;99522.50;4209311;28;21815;-69
2022/08/28 05:45:24;;;;;;;22.03;7.00;;;;;;;21.10;56.79;99518.50;4210769;28;20233;-69
2022/08/28 05:47:51;;;;;;;18.43;7.20;;;;;;;21.18;56.49;99520.00;4203081;28;20236;-68
2022/08/28 05:50:18;;;;;;;17.73;7.00;;;;;;;21.33;56.58;99519.50;4210852;28;20232;-66
2022/08/28 05:52:44;;;;;;;17.43;7.47;;;;;;;21.36;56.72;99522.56;4214106;28;20624;-68
2022/08/28 05:55:12;;;;;;;19.57;7.03;;;;;;;21.48;56.19;99525.28;4211046;28;21105;-68
2022/08/28 05:57:38;;;;;;;21.57;7.50;;;;;;;21.58;55.42;99533.59;4206012;28;25590;-67
2022/08/28 06:00:08;;;;;;;20.37;7.20;;;;;;;21.54;55.94;99537.88;4225385;28;20235;-71
2022/08/28 06:02:35;;;;;;;20.10;6.53;;;;;;;21.63;56.09;99532.88;4199356;28;23455;-68
2022/08/28 06:05:01;;;;;;;19.17;7.03;;;;;;;21.77;56.34;99539.66;4212834;28;21564;-68
2022/08/28 06:07:28;;;;;;;16.93;6.73;;;;;;;21.81;55.78;99531.91;4214173;28;22787;-67
2022/08/28 06:09:54;;;;;;;25.77;7.60;;;;;;;21.85;56.27;99535.78;4210291;28;22877;-69
2022/08/28 06:12:21;;;;;;;18.80;6.93;;;;;;;22.04;55.02;99553.47;4201235;28;22244;-67
2022/08/28 06:14:48;;;;;;;17.50;7.13;;;;;;;22.07;54.71;99555.69;4215265;28;20232;-67
2022/08/28 06:17:15;;;;;;;21.50;6.90;;;;;;;22.08;55.03;99545.69;4212360;28;20482;-66
2022/08/28 06:19:48;;;;;;;21.57;7.50;;;;;;;22.15;55.57;99538.25;4205214;28;22187;-74
2022/08/28 06:22:15;;;;;;;20.90;7.43;;;;;;;22.21;55.40;99540.00;4220124;28;20564;-64
2022/08/28 06:24:42;;;;;;;18.63;7.03;;;;;;;22.34;54.87;99545.13;4222241;28;21361;-64
2022/08/28 06:27:09;;;;;;;23.50;7.27;;;;;;;22.49;53.93;99541.84;4218275;28;21056;-66
2022/08/28 06:29:35;;;;;;;21.07;7.70;;;;;;;22.63;53.68;99545.06;4212240;28;20236;-66
2022/08/28 06:32:03;;;;;;;20.07;7.30;;;;;;;22.70;53.84;99547.63;4196754;28;21466;-67
2022/08/28 06:34:30;;;;;;;25.87;8.03;;;;;;;22.75;54.01;99553.13;4216232;28;20240;-66
2022/08/28 06:36:57;;;;;;;22.23;7.93;;;;;;;22.88;53.92;99549.25;4206115;28;20763;-65
2022/08/28 06:39:23;;;;;;;21.73;7.90;;;;;;;23.12;52.71;99548.00;4219062;28;20397;-68
2022/08/28 06:41:50;;;;;;;18.10;7.93;;;;;;;22.97;53.78;99545.88;4195369;28;21141;-67
2022/08/28 06:44:18;;;;;;;18.37;7.60;;;;;;;23.25;53.65;99544.16;4209613;28;20244;-67
2022/08/28 06:46:47;;;;;;;18.77;7.47;;;;;;;23.99;51.53;99549.16;4218015;28;20291;-65
2022/08/28 06:49:14;;;;;;;17.27;8.07;;;;;;;26.31;43.69;99555.84;4241255;28;20233;-67
2022/08/28 06:51:41;;;;;;;19.17;7.23;;;;;;;27.94;40.26;99569.59;4247085;28;20297;-68
2022/08/28 06:54:08;;;;;;;15.87;7.83;;;;;;;28.38;38.04;99568.78;4250030;28;21841;-65
2022/08/28 06:56:35;;;;;;;22.77;7.80;;;;;;;29.23;37.03;99578.53;4252702;28;20235;-65
2022/08/28 06:59:01;;;;;;;21.10;7.77;;;;;;;30.82;33.83;99581.91;4234674;28;20229;-68
2022/08/28 07:01:31;;;;;;;19.38;7.70;;;;;;;32.80;30.68;99592.75;4268915;28;21151;-67
2022/08/28 07:04:02;;;;;;;17.20;7.78;;;;;;;34.44;27.31;99596.47;4311100;28;22507;-67
2022/08/28 07:06:31;;;;;;;15.27;7.00;;;;;;;35.50;26.01;99600.66;4255491;28;20686;-68
2022/08/28 07:08:58;;;;;;;17.08;6.78;;;;;;;36.76;24.38;99609.13;4240442;28;20673;-66
2022/08/28 07:11:27;;;;;;;11.35;6.70;;;;;;;36.89;23.50;99615.56;4246391;28;21457;-66
2022/08/28 07:13:55;;;;;;;17.67;7.43;;;;;;;37.30;23.17;99606.31;4251172;28;20248;-67
2022/08/28 07:16:25;;;;;;;17.42;8.15;;;;;;;37.91;22.63;99610.25;4234178;28;20252;-65
2022/08/28 07:18:53;;;;;;;20.48;7.80;;;;;;;38.74;21.00;99619.13;4254626;28;20414;-66
2022/08/28 07:21:19;;;;;;;26.02;7.68;;;;;;;39.32;20.85;99624.28;4271556;28;20254;-66
2022/08/28 07:23:46;;;;;;;16.83;7.32;;;;;;;39.39;21.31;99622.53;4215490;28;20888;-65
2022/08/28 07:26:18;;;;;;;16.38;7.65;;;;;;;39.05;20.45;99619.22;4221950;28;20405;-65
2022/08/28 07:28:46;;;;;;;18.02;7.65;;;;;;;39.04;20.63;99614.84;4230026;28;23608;-63
2022/08/28 07:31:17;;;;;;;20.98;7.82;;;;;;;39.04;20.75;99616.81;4218461;28;25788;-66
2022/08/28 07:33:44;;;;;;;20.10;7.78;;;;;;;39.37;20.70;99624.06;4208764;28;20229;-67
2022/08/28 07:36:15;;;;;;;16.05;7.70;;;;;;;40.26;19.81;99626.22;4218140;28;20240;-65
2022/08/28 07:38:56;;;;;;;20.83;8.07;;;;;;;40.78;18.89;99626.09;4214681;28;20231;-67
2022/08/28 07:41:27;;;;;;;17.20;7.95;;;;;;;40.91;18.60;99633.94;4213281;28;20446;-67
2022/08/28 07:46:39;;;;;;;25.25;8.15;;;;;;;41.36;18.24;99631.56;4211051;28;23117;-68
2022/08/28 07:49:07;;;;;;;17.60;7.78;;;;;;;41.49;18.09;99623.78;4205710;28;20240;-66
2022/08/28 07:51:34;;;;;;;21.92;7.65;;;;;;;42.90;16.71;99635.81;4212629;28;22428;-66
2022/08/28 07:54:02;;;;;;;15.23;7.13;;;;;;;42.53;17.01;99636.56;4250767;28;20401;-67
2022/08/28 07:56:30;;;;;;;17.10;7.53;;;;;;;42.59;16.65;99641.44;4200986;28;22051;-67
2022/08/28 07:58:59;;;;;;;13.25;6.93;;;;;;;41.32;17.44;99628.69;4217440;28;20238;-66
2022/08/28 08:01:28;;;;;;;18.23;7.53;;;;;;;40.71;18.26;99624.75;4229926;28;20773;-67
2022/08/28 08:03:57;;;;;;;15.98;6.97;;;;;;;39.60;19.39;99624.22;4232778;28;20240;-65
2022/08/28 08:06:30;;;;;;;15.32;7.60;;;;;;;38.63;20.33;99616.88;4255664;28;20233;-66
2022/08/28 08:09:00;;;;;;;13.40;6.50;;;;;;;37.70;21.75;99610.44;4247128;28;22208;-68
2022/08/28 08:11:27;;;;;;;14.55;6.95;;;;;;;36.56;23.35;99600.50;4235683;28;20241;-65
2022/08/28 08:14:03;;;;;;;21.73;7.72;;;;;;;35.55;24.76;99586.66;4224282;28;23676;-67
2022/08/28 08:16:37;;;;;;;18.92;7.30;;;;;;;34.23;26.40;99585.25;4218513;28;20229;-66
2022/08/28 08:19:04;;;;;;;16.45;7.30;;;;;;;33.70;27.98;99575.22;4254700;28;20236;-65
2022/08/28 08:21:31;;;;;;;14.80;7.43;;;;;;;33.34;29.24;99572.63;4221297;28;20232;-64
2022/08/28 08:23:58;;;;;;;19.45;7.47;;;;;;;33.30;28.94;99579.91;4211394;28;20685;-66
2022/08/28 08:26:28;;;;;;;19.77;7.28;;;;;;;33.21;28.80;99586.19;4234670;28;20259;-65
2022/08/28 08:28:55;;;;;;;20.73;7.38;;;;;;;32.95;29.33;99576.94;4250697;28;20228;-66
2022/08/28 08:31:31;;;;;;;15.43;7.72;;;;;;;32.61;29.93;99575.56;4216839;28;22297;-67
2022/08/28 08:34:00;;;;;;;15.52;6.90;;;;;;;32.36;30.37;99580.56;4204579;28;20401;-65
2022/08/28 08:36:27;;;;;;;16.65;6.88;;;;;;;32.11;31.02;99575.63;4195384;28;20240;-66
2022/08/28 08:38:54;;;;;;;13.40;7.38;;;;;;;32.25;31.26;99583.84;4228848;28;20341;-66
2022/08/28 08:41:40;;;;;;;20.10;7.05;;;;;;;32.53;30.47;99582.66;4200815;28;20241;-64
2022/08/28 08:44:16;;;;;;;15.20;6.88;;;;;;;32.54;30.56;99587.03;4200121;28;20311;-66
2022/08/28 08:47:15;;;;;;;17.05;6.75;;;;;;;32.43;30.64;99582.88;4216235;28;20551;-65
2022/08/28 08:49:51;;;;;;;18.67;6.20;;;;;;;32.19;30.73;99577.63;4206338;28;25635;-65
2022/08/28 08:52:51;;;;;;;15.05;5.80;;;;;;;32.11;30.11;99581.13;4208947;28;22307;-66
2022/08/28 08:55:30;;;;;;;13.65;6.07;;;;;;;32.00;30.71;99579.72;4221170;28;21174;-66
2022/08/28 08:58:06;;;;;;;14.93;6.28;;;;;;;31.64;32.19;99574.97;4281354;28;20664;-67
2022/08/28 09:00:38;;;;;;;13.75;6.28;;;;;;;31.44;32.95;99574.22;4235589;28;20326;-68
2022/08/28 09:03:44;;;;;;;21.90;6.95;;;;;;;31.55;31.64;99574.84;4326376;28;25527;-69
2022/08/28 09:06:39;;;;;;;15.55;6.32;;;;;;;31.78;31.68;99584.00;4205359;28;20241;-67
2022/08/28 09:09:20;;;;;;;18.30;5.75;;;;;;;31.59;31.13;99575.06;4233279;28;20264;-66
2022/08/28 09:11:59;;;;;;;13.77;6.43;;;;;;;31.11;33.43;99570.72;4218934;28;20236;-69
2022/08/28 09:14:43;;;;;;;23.48;6.97;;;;;;;31.05;33.67;99575.50;4221893;28;23081;-69
2022/08/28 09:17:10;;;;;;;16.35;5.97;;;;;;;30.62;34.57;99572.06;4215423;28;21517;-69
2022/08/28 09:19:37;;;;;;;16.80;6.07;;;;;;;30.90;34.47;99570.25;4220981;28;20870;-71
2022/08/28 09:22:04;;;;;;;11.00;5.63;;;;;;;31.23;34.03;99570.22;4212064;28;20340;-67
2022/08/28 09:24:35;;;;;;;24.60;6.05;;;;;;;31.39;32.94;99576.25;4210991;28;20379;-69
2022/08/28 09:27:17;;;;;;;16.48;6.22;;;;;;;31.43;32.39;99577.31;4211109;28;20248;-68
2022/08/28 09:29:53;;;;;;;11.38;5.80;;;;;;;30.98;32.44;99572.34;4281046;28;20367;-69
2022/08/28 09:32:24;;;;;;;19.42;6.15;;;;;;;30.85;32.81;99570.34;4197222;28;20300;-66
2022/08/28 09:35:05;;;;;;;12.50;5.45;;;;;;;30.79;33.02;99568.78;4227737;28;20227;-68
2022/08/28 09:37:34;;;;;;;21.35;5.95;;;;;;;30.86;33.23;99569.22;4214315;28;21413;-67
2022/08/28 09:43:25;;;;;;;13.85;5.63;;;;;;;31.01;33.80;99568.97;4240084;28;21855;-67
2022/08/28 09:43:25;;;;;;;14.40;5.55;;;;;;;30.97;34.27;99564.38;4200742;28;20235;-73
2022/08/28 09:45:58;;;;;;;15.05;5.10;;;;;;;30.80;35.28;99567.66;4207444;28;20299;-71
2022/08/28 09:48:51;;;;;;;13.32;4.97;;;;;;;31.16;34.15;99569.81;4227621;28;21093;-73
2022/08/28 09:51:20;;;;;;;17.73;5.80;;;;;;;31.17;34.35;99560.47;4222550;28;20249;-73
2022/08/28 09:53:55;;;;;;;11.70;5.03;;;;;;;31.16;33.56;99561.56;4227208;28;20235;-74
2022/08/28 09:56:38;;;;;;;9.02;4.55;;;;;;;31.25;33.38;99566.03;4218373;28;20466;-70
2022/08/28 09:59:19;;;;;;;14.75;5.00;;;;;;;31.47;32.78;99570.88;4210344;28;20239;-74
2022/08/28 10:01:48;;;;;;;14.38;5.43;;;;;;;30.93;34.73;99569.69;4223731;28;20227;-71
2022/08/28 10:04:30;;;;;;;22.67;5.53;;;;;;;30.57;34.61;99561.19;4215383;28;20573;-74
2022/08/28 10:07:32;;;;;;;17.10;5.18;;;;;;;30.59;35.04;99558.94;4201784;28;23026;-71
2022/08/28 10:10:23;;;;;;;12.65;5.00;;;;;;;30.77;33.84;99565.53;4213319;28;20402;-72
2022/08/28 10:13:13;;;;;;;13.88;5.40;;;;;;;30.70;34.35;99550.25;4208556;28;20833;-74
2022/08/28 10:15:40;;;;;;;12.63;5.32;;;;;;;30.74;34.25;99555.13;4230251;28;20237;-74
2022/08/28 10:18:44;;;;;;;13.68;5.03;;;;;;;30.70;34.77;99550.25;4223504;28;20233;-71
2022/08/28 10:21:22;;;;;;;13.35;5.10;;;;;;;30.82;35.72;99548.97;4187942;28;20312;-76
2022/08/28 10:24:01;;;;;;;17.85;5.00;;;;;;;30.99;33.89;99551.97;4187574;28;20589;-72
2022/08/28 10:26:51;;;;;;;13.95;4.60;;;;;;;30.83;35.17;99553.31;4226936;28;20270;-71
2022/08/28 10:29:32;;;;;;;15.40;4.70;;;;;;;30.86;33.68;99547.25;4212363;28;20251;-74
2022/08/28 10:32:14;;;;;;;11.77;4.85;;;;;;;30.37;35.78;99543.94;4232707;28;20245;-75
2022/08/28 10:35:19;;;;;;;12.85;4.65;;;;;;;30.81;34.36;99545.41;4213519;28;20296;-75
2022/08/28 10:38:18;;;;;;;8.30;4.70;;;;;;;30.98;34.20;99544.84;4235939;28;22903;-70
2022/08/28 10:41:02;;;;;;;17.35;4.85;;;;;;;30.97;32.57;99543.19;4205592;28;20549;-73
2022/08/28 10:43:33;;;;;;;9.77;4.63;;;;;;;31.09;32.30;99549.06;4230454;28;20252;-72
2022/08/28 10:46:40;;;;;;;9.95;4.50;;;;;;;30.75;32.02;99546.59;4222067;28;22417;-69
2022/08/28 10:49:32;;;;;;;11.30;4.35;;;;;;;30.99;32.16;99540.97;4219120;28;21733;-68
2022/08/28 10:52:03;;;;;;;9.00;4.03;;;;;;;30.76;33.82;99542.72;4241330;28;22620;-70
2022/08/28 10:54:39;;;;;;;16.10;4.77;;;;;;;31.08;31.73;99541.91;4225883;28;20264;-71
2022/08/28 10:57:15;;;;;;;10.50;4.25;;;;;;;31.26;31.98;99542.94;4213742;28;22416;-69
2022/08/28 10:59:45;;;;;;;16.13;4.75;;;;;;;31.48;31.40;99550.50;4243086;28;21804;-67
2022/08/28 11:02:12;;;;;;;15.45;4.55;;;;;;;31.40;30.06;99542.97;4220333;28;21078;-70
2022/08/28 11:04:39;;;;;;;18.30;4.53;;;;;;;31.15;30.81;99538.75;4214171;28;20333;-67
2022/08/28 11:07:08;;;;;;;12.85;4.60;;;;;;;31.35;30.42;99540.28;4217021;28;20355;-66
2022/08/28 11:09:44;;;;;;;8.73;4.20;;;;;;;31.52;30.77;99548.78;4226373;28;20291;-68
2022/08/28 11:12:18;;;;;;;15.68;4.78;;;;;;;31.49;30.84;99554.06;4209766;28;20305;-71
2022/08/28 11:14:48;;;;;;;14.77;4.45;;;;;;;31.54;31.04;99549.28;4215522;28;22998;-74
2022/08/28 11:17:38;;;;;;;12.70;4.57;;;;;;;31.66;30.56;99539.72;4217751;28;21146;-73
2022/08/28 11:20:10;;;;;;;12.00;4.25;;;;;;;31.79;30.01;99549.88;4197862;28;23431;-73
2022/08/28 11:22:41;;;;;;;10.32;4.90;;;;;;;31.73;28.61;99553.88;4229974;28;20304;-73
2022/08/28 11:25:30;;;;;;;8.57;4.28;;;;;;;31.75;29.29;99551.63;4207747;28;20233;-72
2022/08/28 11:28:21;;;;;;;12.52;4.93;;;;;;;31.75;29.87;99546.94;4241728;28;21213;-73
2022/08/28 11:30:57;;;;;;;13.57;4.78;;;;;;;31.66;30.36;99543.28;4238223;28;21887;-75
2022/08/28 11:33:48;;;;;;;12.00;4.97;;;;;;;31.64;30.93;99550.22;4226773;28;22727;-73
2022/08/28 11:36:18;;;;;;;12.85;4.57;;;;;;;31.37;32.40;99537.25;4224257;28;20241;-71
2022/08/28 11:38:45;;;;;;;17.00;5.07;;;;;;;31.16;32.58;99539.56;4246461;28;20347;-75
2022/08/28 11:41:35;;;;;;;18.77;5.13;;;;;;;31.07;32.44;99537.53;4231858;28;21439;-74
2022/08/28 11:44:16;;;;;;;15.65;4.50;;;;;;;31.50;30.54;99541.97;4245209;28;20228;-73
2022/08/28 11:46:46;;;;;;;21.15;4.80;;;;;;;31.76;29.55;99551.31;4237135;28;20701;-75